Ana Sayfa
METAR-TAF:

METAR-TAF

Havaalanları :

Hemphill County Airport

Canadian, Teksas, Amerika Birleşik Devletleri

Enlem: 35-54N, Boylam: 100-24W, yükseklik: 730 m

Güncel hava durumu gözlemi

Rapor saat 03:15 UTC de 33 dakika önce yapıldı.
Rüzgar batıdan 3 kt
Sıcaklık 4°C
Nem 56%
Basınç 1025 hPa
Görüş mesafesi: 16.1 km
Açık gökyüzü

METAR: KHHF 280315Z AUTO 28003KT 10SM CLR 04/M04 A3026 RMK AO2 T00441037

Saat: 21:48 (03:48 UTC)


TAF: eksik

4.000'den fazla havaalanı için hava durumu gözlemleri ve tahminleri (METAR ve TAF raporları).

Kullanılabilir istasyonlar harita üzerinde sarı ve kırmızı noktalarla gösterilir.

İstasyonun adını görmek için fareyi noktanın üzerinde gezdirin.

Sonrasında hava gözlem ve tahminlerini görmek için tıklayın.

Haritayı değiştirmek için: yaklaştırmak için siyah artı işaretli yeşil düğmeye ve uzaklaştırmak için de eksi işaretli düğmeye hızla tıklayın; bitişik haritalar için yeşil okları kullanın.


METAR-TAF: